createdAt,value
2018-05-28T00:02:14.583Z,13.30
2018-05-28T00:04:42.231Z,14.77
2018-05-28T00:07:09.851Z,11.60
2018-05-28T00:09:37.498Z,13.93
2018-05-28T00:12:05.184Z,11.20
2018-05-28T00:14:32.847Z,13.20
2018-05-28T00:17:00.472Z,12.13
2018-05-28T00:19:28.125Z,13.87
2018-05-28T00:21:55.742Z,13.57
2018-05-28T00:24:23.382Z,13.20
2018-05-28T00:26:51.003Z,13.23
2018-05-28T00:29:18.647Z,16.93
2018-05-28T00:31:46.267Z,14.07
2018-05-28T00:34:13.936Z,28.60
2018-05-28T00:36:41.587Z,17.70
2018-05-28T00:39:09.258Z,14.17
2018-05-28T00:41:36.912Z,15.77
2018-05-28T00:44:04.592Z,14.00
2018-05-28T00:46:32.212Z,13.97
2018-05-28T00:48:59.859Z,15.00
2018-05-28T00:51:27.479Z,16.17
2018-05-28T00:53:55.124Z,16.73
2018-05-28T00:56:22.795Z,21.83
2018-05-28T00:58:50.442Z,15.30
2018-05-28T01:01:18.079Z,14.80
2018-05-28T01:03:45.739Z,21.53
2018-05-28T01:06:13.354Z,16.80
2018-05-28T01:08:40.975Z,15.97
2018-05-28T01:11:08.611Z,18.33
2018-05-28T01:13:36.235Z,16.23
2018-05-28T01:16:03.879Z,24.80
2018-05-28T01:18:31.551Z,16.43
2018-05-28T01:20:59.216Z,17.43
2018-05-28T01:23:26.865Z,18.57
2018-05-28T01:25:54.506Z,16.80
2018-05-28T01:28:22.135Z,19.90
2018-05-28T01:30:49.781Z,19.23
2018-05-28T01:33:17.403Z,18.17
2018-05-28T01:35:45.087Z,18.10
2018-05-28T01:38:12.747Z,19.77
2018-05-28T01:40:40.397Z,21.37
2018-05-28T01:43:08.015Z,23.00
2018-05-28T01:45:35.660Z,20.90
2018-05-28T01:48:03.297Z,21.43
2018-05-28T01:50:30.965Z,20.30
2018-05-28T01:52:58.628Z,20.10
2018-05-28T01:55:26.273Z,19.50
2018-05-28T01:57:53.887Z,21.23
2018-05-28T02:00:21.532Z,32.63
2018-05-28T02:02:49.151Z,21.90
2018-05-28T02:05:16.827Z,26.13
2018-05-28T02:07:44.436Z,23.17
2018-05-28T02:10:12.075Z,23.43
2018-05-28T02:12:39.691Z,21.33
2018-05-28T02:15:07.374Z,20.80
2018-05-28T02:17:34.993Z,25.17
2018-05-28T02:20:02.648Z,20.63
2018-05-28T02:22:30.267Z,22.07
2018-05-28T02:24:57.882Z,24.30
2018-05-28T02:27:25.522Z,24.73
2018-05-28T02:29:53.143Z,24.00
2018-05-28T02:32:20.778Z,23.73
2018-05-28T02:34:48.446Z,21.73
2018-05-28T02:37:16.138Z,22.50
2018-05-28T02:39:43.755Z,24.60
2018-05-28T02:42:11.390Z,33.00
2018-05-28T02:44:39.004Z,24.00
2018-05-28T02:47:06.693Z,27.43
2018-05-28T02:49:34.309Z,29.97
2018-05-28T02:52:01.951Z,27.83
2018-05-28T02:54:29.563Z,25.07
2018-05-28T02:56:57.208Z,26.20
2018-05-28T02:59:24.826Z,24.10
2018-05-28T03:01:52.474Z,23.73
2018-05-28T03:04:20.110Z,39.20
2018-05-28T03:06:47.755Z,28.77
2018-05-28T03:09:15.367Z,27.73
2018-05-28T03:11:43.095Z,25.97
2018-05-28T03:14:11.267Z,37.20
2018-05-28T03:16:38.929Z,36.80
2018-05-28T03:19:06.604Z,31.47
2018-05-28T03:21:34.237Z,28.53
2018-05-28T03:24:01.922Z,29.00
2018-05-28T03:26:29.558Z,29.10
2018-05-28T03:28:57.241Z,30.73
2018-05-28T03:31:24.912Z,28.30
2018-05-28T03:33:52.527Z,29.77
2018-05-28T03:36:20.191Z,27.53
2018-05-28T03:38:47.822Z,33.17
2018-05-28T03:41:15.435Z,32.97
2018-05-28T03:43:43.114Z,30.00
2018-05-28T03:46:10.722Z,36.47
2018-05-28T03:48:38.357Z,39.63
2018-05-28T03:51:06.002Z,32.03
2018-05-28T03:53:33.667Z,39.60
2018-05-28T03:56:01.322Z,34.13
2018-05-28T03:58:28.960Z,38.57
2018-05-28T04:01:09.863Z,31.93
2018-05-28T04:03:49.200Z,34.50
2018-05-28T04:06:16.806Z,32.30
2018-05-28T04:08:44.447Z,45.73
2018-05-28T04:11:12.063Z,27.77
2018-05-28T04:13:39.754Z,31.73
2018-05-28T04:16:07.366Z,26.13
2018-05-28T04:18:35.002Z,25.53
2018-05-28T04:21:02.614Z,29.00
2018-05-28T04:23:30.251Z,27.40
2018-05-28T04:25:57.862Z,28.50
2018-05-28T04:28:25.521Z,32.73
2018-05-28T04:30:53.170Z,31.70
2018-05-28T04:33:20.801Z,30.33
2018-05-28T04:35:48.419Z,28.80
2018-05-28T04:38:16.268Z,24.80
2018-05-28T04:40:43.893Z,26.83
2018-05-28T04:43:11.546Z,27.93
2018-05-28T04:45:40.210Z,31.57
2018-05-28T04:48:07.875Z,41.43
2018-05-28T04:50:35.483Z,28.07
2018-05-28T04:53:03.159Z,37.27
2018-05-28T04:55:30.803Z,29.10
2018-05-28T04:57:58.418Z,35.00
2018-05-28T05:00:26.055Z,30.03
2018-05-28T05:02:53.694Z,33.67
2018-05-28T05:05:21.336Z,27.30
2018-05-28T05:07:48.951Z,33.70
2018-05-28T05:10:16.719Z,27.17
2018-05-28T05:12:44.342Z,28.70
2018-05-28T05:15:11.984Z,27.10
2018-05-28T05:17:39.594Z,28.33
2018-05-28T05:20:07.250Z,36.30
2018-05-28T05:22:34.903Z,29.90
2018-05-28T05:25:02.594Z,26.17
2018-05-28T05:27:30.951Z,28.07
2018-05-28T05:29:58.583Z,29.77
2018-05-28T05:32:26.203Z,35.40
2018-05-28T05:34:53.838Z,33.73
2018-05-28T05:37:21.451Z,29.20
2018-05-28T05:39:49.095Z,29.30
2018-05-28T05:42:16.787Z,29.30
2018-05-28T05:44:44.481Z,31.00
2018-05-28T05:47:12.153Z,35.43
2018-05-28T05:49:39.794Z,29.73
2018-05-28T05:52:07.411Z,28.60
2018-05-28T05:54:35.138Z,29.27
2018-05-28T05:57:02.756Z,26.87
2018-05-28T05:59:30.371Z,24.87
2018-05-28T06:01:58.039Z,26.27
2018-05-28T06:04:25.664Z,25.57
2018-05-28T06:06:53.310Z,26.37
2018-05-28T06:09:20.925Z,31.30
2018-05-28T06:11:48.563Z,30.90
2018-05-28T06:14:16.174Z,29.67
2018-05-28T06:16:43.811Z,32.43
2018-05-28T06:19:11.446Z,26.77
2018-05-28T06:21:39.078Z,30.10
2018-05-28T06:24:06.690Z,25.67
2018-05-28T06:26:34.332Z,28.23
2018-05-28T06:29:01.951Z,29.93
2018-05-28T06:31:29.592Z,28.33
2018-05-28T06:33:57.215Z,28.33
2018-05-28T06:36:24.886Z,34.00
2018-05-28T06:38:52.548Z,37.33
2018-05-28T06:41:20.207Z,33.50
2018-05-28T06:43:47.830Z,36.07
2018-05-28T06:46:15.468Z,24.17
2018-05-28T06:48:43.082Z,30.33
2018-05-28T06:51:10.759Z,28.70
2018-05-28T06:53:38.369Z,30.07
2018-05-28T06:56:06.011Z,28.77
2018-05-28T06:58:33.645Z,24.77
2018-05-28T07:01:01.307Z,23.33
2018-05-28T07:03:28.919Z,23.80
2018-05-28T07:05:56.575Z,33.20
2018-05-28T07:08:24.182Z,22.57
2018-05-28T07:10:51.803Z,35.93
2018-05-28T07:13:19.442Z,24.20
2018-05-28T07:15:47.066Z,20.30
2018-05-28T07:18:14.738Z,21.97
2018-05-28T07:20:42.403Z,24.53
2018-05-28T07:23:10.048Z,22.90
2018-05-28T07:25:37.722Z,22.60
2018-05-28T07:28:05.386Z,20.47
2018-05-28T07:30:32.997Z,26.87
2018-05-28T07:33:00.710Z,25.70
2018-05-28T07:35:28.377Z,24.17
2018-05-28T07:37:56.027Z,22.77
2018-05-28T07:40:23.705Z,26.73
2018-05-28T07:42:51.359Z,29.97
2018-05-28T07:45:19.003Z,27.17
2018-05-28T07:47:46.687Z,24.43
2018-05-28T07:50:14.303Z,24.30
2018-05-28T07:52:41.946Z,30.70
2018-05-28T07:55:09.566Z,31.57
2018-05-28T07:57:37.210Z,22.40
2018-05-28T08:00:04.896Z,22.20
2018-05-28T08:02:32.559Z,23.00
2018-05-28T08:05:00.179Z,35.53
2018-05-28T08:07:27.819Z,21.13
2018-05-28T08:09:55.441Z,25.27
2018-05-28T08:12:23.102Z,19.00
2018-05-28T08:14:50.710Z,23.70
2018-05-28T08:17:18.346Z,26.63
2018-05-28T08:19:45.986Z,22.83
2018-05-28T08:22:13.611Z,22.67
2018-05-28T08:24:41.314Z,18.17
2018-05-28T08:27:08.926Z,24.63
2018-05-28T08:29:36.557Z,19.87
2018-05-28T08:32:04.198Z,26.63
2018-05-28T08:34:31.853Z,18.47
2018-05-28T08:36:59.467Z,22.30
2018-05-28T08:39:27.187Z,24.77
2018-05-28T08:41:54.886Z,38.77
2018-05-28T08:44:22.617Z,19.53
2018-05-28T08:46:50.274Z,22.37
2018-05-28T08:49:17.935Z,20.13
2018-05-28T08:51:45.541Z,25.97
2018-05-28T08:54:13.178Z,20.03
2018-05-28T08:56:40.790Z,21.47
2018-05-28T08:59:08.478Z,22.03
2018-05-28T09:01:36.094Z,18.40
2018-05-28T09:04:03.811Z,20.43
2018-05-28T09:06:31.465Z,18.90
2018-05-28T09:08:59.098Z,22.43
2018-05-28T09:11:26.998Z,27.03
2018-05-28T09:13:54.562Z,22.07
2018-05-28T09:16:22.179Z,19.73
2018-05-28T09:18:49.890Z,33.00
2018-05-28T09:21:17.511Z,18.37
2018-05-28T09:23:45.211Z,23.30
2018-05-28T09:26:12.832Z,15.73
2018-05-28T09:28:40.538Z,19.77
2018-05-28T09:31:08.151Z,16.00
2018-05-28T09:33:35.803Z,16.17
2018-05-28T09:36:04.463Z,15.43
2018-05-28T09:38:32.074Z,18.20
2018-05-28T09:40:59.719Z,15.67
2018-05-28T09:43:27.339Z,27.33
2018-05-28T09:45:54.974Z,29.03
2018-05-28T09:48:22.659Z,18.43
2018-05-28T09:50:50.295Z,31.63
2018-05-28T09:53:17.910Z,14.67
2018-05-28T09:55:45.547Z,23.30
2018-05-28T09:58:13.159Z,13.27
2018-05-28T10:00:40.790Z,12.83
2018-05-28T10:03:08.402Z,26.20
2018-05-28T10:05:36.050Z,18.37
2018-05-28T10:08:03.663Z,21.57
2018-05-28T10:10:31.295Z,14.63
2018-05-28T10:12:58.985Z,13.60
2018-05-28T10:15:26.635Z,13.97
2018-05-28T10:17:54.294Z,16.93
2018-05-28T10:20:21.930Z,17.13
2018-05-28T10:22:49.649Z,15.03
2018-05-28T10:25:17.389Z,12.90
2018-05-28T10:27:45.009Z,15.27
2018-05-28T10:30:12.647Z,15.90
2018-05-28T10:32:40.365Z,14.70
2018-05-28T10:35:08.454Z,17.63
2018-05-28T10:37:36.066Z,11.93
2018-05-28T10:40:03.771Z,15.23
2018-05-28T10:42:31.411Z,13.77
2018-05-28T10:44:59.085Z,13.87
2018-05-28T10:47:26.727Z,14.97
2018-05-28T10:49:54.357Z,12.47
2018-05-28T10:52:22.102Z,20.70
2018-05-28T10:54:49.741Z,16.37
2018-05-28T10:57:17.407Z,17.80
2018-05-28T10:59:45.017Z,16.63
2018-05-28T11:02:12.653Z,22.77
2018-05-28T11:04:40.267Z,13.37
2018-05-28T11:07:07.906Z,22.53
2018-05-28T11:09:35.522Z,13.60
2018-05-28T11:12:03.280Z,13.67
2018-05-28T11:14:30.932Z,13.20
2018-05-28T11:16:58.605Z,26.13
2018-05-28T11:19:26.267Z,15.47
2018-05-28T11:21:53.909Z,20.17
2018-05-28T11:24:21.517Z,13.57
2018-05-28T11:26:49.158Z,15.80
2018-05-28T11:29:16.770Z,12.63
2018-05-28T11:31:44.492Z,15.90
2018-05-28T11:34:12.106Z,14.20
2018-05-28T11:36:39.798Z,14.83
2018-05-28T11:39:07.422Z,15.30
2018-05-28T11:41:35.091Z,17.17
2018-05-28T11:44:02.720Z,11.53
2018-05-28T11:46:30.403Z,11.47
2018-05-28T11:48:58.003Z,14.10
2018-05-28T11:51:25.755Z,21.77
2018-05-28T11:53:53.382Z,11.03
2018-05-28T11:56:21.094Z,11.63
2018-05-28T11:58:48.758Z,11.40
2018-05-28T12:01:16.416Z,23.20
2018-05-28T12:03:44.087Z,15.43
2018-05-28T12:06:11.706Z,11.90
2018-05-28T12:08:39.342Z,15.00
2018-05-28T12:11:07.070Z,12.97
2018-05-28T12:13:34.730Z,15.27
2018-05-28T12:16:02.424Z,16.63
2018-05-28T12:18:30.011Z,11.40
2018-05-28T12:20:57.723Z,10.73
2018-05-28T12:23:25.353Z,11.80
2018-05-28T12:25:52.971Z,13.10
2018-05-28T12:28:20.607Z,12.43
2018-05-28T12:30:48.265Z,14.80
2018-05-28T12:33:15.927Z,14.23
2018-05-28T12:35:43.543Z,19.20
2018-05-28T12:38:11.178Z,10.33
2018-05-28T12:40:38.813Z,10.00
2018-05-28T12:43:06.442Z,26.63
2018-05-28T12:45:34.138Z,10.67
2018-05-28T12:48:01.766Z,9.97
2018-05-28T12:50:29.398Z,10.80
2018-05-28T12:52:57.126Z,9.40
2018-05-28T12:55:24.735Z,11.90
2018-05-28T12:57:52.374Z,10.03
2018-05-28T13:00:19.987Z,17.97
2018-05-28T13:02:47.614Z,14.87
2018-05-28T13:05:15.227Z,10.07
2018-05-28T13:07:42.993Z,14.13
2018-05-28T13:10:10.598Z,14.13
2018-05-28T13:12:38.203Z,9.70
2018-05-28T13:15:05.886Z,13.00
2018-05-28T13:17:33.488Z,9.40
2018-05-28T13:20:01.115Z,9.30
2018-05-28T13:22:28.723Z,10.23
2018-05-28T13:24:56.355Z,19.33
2018-05-28T13:27:23.957Z,16.07
2018-05-28T13:29:51.594Z,13.00
2018-05-28T13:32:19.210Z,19.33
2018-05-28T13:34:46.847Z,12.83
2018-05-28T13:37:14.469Z,12.67
2018-05-28T13:39:42.117Z,10.00
2018-05-28T13:42:09.760Z,12.27
2018-05-28T13:44:37.418Z,9.47
2018-05-28T13:47:05.094Z,14.93
2018-05-28T13:49:32.736Z,15.20
2018-05-28T13:52:00.345Z,9.10
2018-05-28T13:54:27.982Z,11.00
2018-05-28T13:56:55.630Z,12.57
2018-05-28T13:59:23.263Z,14.33
2018-05-28T14:01:50.898Z,11.83
2018-05-28T14:04:18.526Z,9.53
2018-05-28T14:06:46.133Z,16.73
2018-05-28T14:09:13.839Z,9.77
2018-05-28T14:11:41.597Z,11.60
2018-05-28T14:14:09.268Z,11.60
2018-05-28T14:16:36.890Z,9.87
2018-05-28T14:19:04.524Z,9.43
2018-05-28T14:21:32.146Z,9.67
2018-05-28T14:23:59.810Z,13.70
2018-05-28T14:26:27.416Z,9.70
2018-05-28T14:28:55.138Z,9.20
2018-05-28T14:31:23.066Z,9.37
2018-05-28T14:33:50.426Z,9.70
2018-05-28T14:36:18.122Z,9.60
2018-05-28T14:38:45.883Z,9.23
2018-05-28T14:41:13.552Z,13.87
2018-05-28T14:43:41.199Z,9.20
2018-05-28T14:46:08.841Z,10.57
2018-05-28T14:48:36.451Z,9.00
2018-05-28T14:51:04.163Z,8.97
2018-05-28T14:53:31.722Z,9.60
2018-05-28T14:55:59.423Z,8.90
2018-05-28T14:58:27.042Z,15.80
2018-05-28T15:00:54.679Z,11.67
2018-05-28T15:03:22.286Z,8.67
2018-05-28T15:05:49.924Z,15.20
2018-05-28T15:08:17.592Z,9.80
2018-05-28T15:10:45.235Z,11.00
2018-05-28T15:13:12.959Z,11.97
2018-05-28T15:15:40.618Z,11.37
2018-05-28T15:18:08.222Z,9.27
2018-05-28T15:20:35.908Z,20.30
2018-05-28T15:23:03.495Z,15.13
2018-05-28T15:25:31.159Z,16.17
2018-05-28T15:27:58.926Z,9.73
2018-05-28T15:30:26.595Z,13.77
2018-05-28T15:32:54.206Z,9.80
2018-05-28T15:35:21.839Z,12.77
2018-05-28T15:37:49.475Z,9.30
2018-05-28T15:40:17.243Z,12.20
2018-05-28T15:42:45.780Z,17.07
2018-05-28T15:45:13.387Z,9.30
2018-05-28T15:47:41.026Z,15.53
2018-05-28T15:50:08.635Z,11.20
2018-05-28T15:52:36.366Z,8.30
2018-05-28T15:55:04.035Z,9.20
2018-05-28T15:57:31.694Z,7.90
2018-05-28T15:59:59.302Z,9.47
2018-05-28T16:02:26.926Z,8.27
2018-05-28T16:04:54.539Z,11.57
2018-05-28T16:07:22.165Z,9.77
2018-05-28T16:09:49.778Z,14.47
2018-05-28T16:12:17.470Z,16.80
2018-05-28T16:14:45.071Z,7.63
2018-05-28T16:17:12.790Z,7.83
2018-05-28T16:19:40.450Z,8.60
2018-05-28T16:22:08.111Z,8.67
2018-05-28T16:24:35.715Z,11.93
2018-05-28T16:27:03.439Z,29.43
2018-05-28T16:29:31.299Z,7.60
2018-05-28T16:31:58.945Z,8.47
2018-05-28T16:34:26.626Z,8.50
2018-05-28T16:36:54.286Z,18.60
2018-05-28T16:39:21.960Z,9.13
2018-05-28T16:41:49.590Z,7.87
2018-05-28T16:44:17.203Z,10.13
2018-05-28T16:46:44.936Z,8.07
2018-05-28T16:49:12.601Z,9.83
2018-05-28T16:51:40.231Z,7.80
2018-05-28T16:54:07.926Z,7.00
2018-05-28T16:56:35.575Z,7.27
2018-05-28T16:59:03.230Z,16.30
2018-05-28T17:01:30.911Z,6.33
2018-05-28T17:03:58.543Z,7.23
2018-05-28T17:06:26.150Z,7.10
2018-05-28T17:08:53.784Z,6.70
2018-05-28T17:11:21.395Z,12.27
2018-05-28T17:13:49.023Z,9.47
2018-05-28T17:16:16.630Z,6.07
2018-05-28T17:18:44.343Z,12.63
2018-05-28T17:21:11.946Z,7.10
2018-05-28T17:23:39.667Z,6.13
2018-05-28T17:26:07.271Z,7.47
2018-05-28T17:28:34.989Z,6.47
2018-05-28T17:31:02.598Z,6.43
2018-05-28T17:33:30.230Z,14.50
2018-05-28T17:35:57.842Z,10.33
2018-05-28T17:38:25.474Z,6.13
2018-05-28T17:40:53.197Z,5.90
2018-05-28T17:43:20.835Z,16.60
2018-05-28T17:45:48.451Z,7.23
2018-05-28T17:48:16.079Z,7.53
2018-05-28T17:50:43.685Z,7.30
2018-05-28T17:53:11.316Z,18.53
2018-05-28T17:55:38.922Z,7.90
2018-05-28T17:58:06.631Z,8.10
2018-05-28T18:00:36.054Z,11.30
2018-05-28T18:03:03.694Z,9.50
2018-05-28T18:05:31.356Z,9.63
2018-05-28T18:07:58.985Z,10.80
2018-05-28T18:10:26.679Z,8.53
2018-05-28T18:12:54.347Z,9.37
2018-05-28T18:15:21.954Z,15.13
2018-05-28T18:17:49.574Z,16.47
2018-05-28T18:20:17.214Z,19.07
2018-05-28T18:22:44.890Z,10.57
2018-05-28T18:25:12.554Z,13.97
2018-05-28T18:27:40.160Z,8.97
2018-05-28T18:30:07.807Z,29.20
2018-05-28T18:32:35.415Z,13.93
2018-05-28T18:35:03.097Z,20.60
2018-05-28T18:37:30.714Z,13.10
2018-05-28T18:39:58.346Z,9.63
2018-05-28T18:42:25.991Z,10.30
2018-05-28T18:44:53.654Z,34.07
2018-05-28T18:47:21.262Z,17.60
2018-05-28T18:49:48.900Z,17.37
2018-05-28T18:52:16.514Z,15.23
2018-05-28T18:54:44.146Z,10.27
2018-05-28T18:57:11.755Z,9.97
2018-05-28T18:59:39.382Z,22.53
2018-05-28T19:02:07.029Z,11.17
2018-05-28T19:04:34.666Z,18.67
2018-05-28T19:07:02.282Z,12.30
2018-05-28T19:09:29.918Z,12.27
2018-05-28T19:11:57.526Z,11.27
2018-05-28T19:14:25.166Z,11.57
2018-05-28T19:16:52.775Z,12.40
2018-05-28T19:19:20.407Z,13.23
2018-05-28T19:21:48.019Z,11.03
2018-05-28T19:24:15.651Z,13.50
2018-05-28T19:26:43.254Z,9.20
2018-05-28T19:29:10.896Z,27.30
2018-05-28T19:31:38.550Z,15.57
2018-05-28T19:34:06.179Z,11.50
2018-05-28T19:36:33.833Z,9.10
2018-05-28T19:39:01.447Z,22.33
2018-05-28T19:41:29.086Z,12.80
2018-05-28T19:43:56.728Z,19.70
2018-05-28T19:46:24.358Z,10.10
2018-05-28T19:48:51.974Z,21.07
2018-05-28T19:51:19.662Z,16.20
2018-05-28T19:53:47.375Z,13.20
2018-05-28T19:56:15.002Z,10.63
2018-05-28T19:58:42.640Z,13.83
2018-05-28T20:01:10.294Z,11.23
2018-05-28T20:03:37.918Z,13.83
2018-05-28T20:06:05.926Z,11.20
2018-05-28T20:08:33.535Z,19.60
2018-05-28T20:11:01.217Z,14.50
2018-05-28T20:13:28.878Z,12.00
2018-05-28T20:15:56.510Z,13.23
2018-05-28T20:18:24.123Z,12.97
2018-05-28T20:20:51.734Z,14.10
2018-05-28T20:23:19.426Z,10.77
2018-05-28T20:25:47.122Z,19.90
2018-05-28T20:28:14.741Z,10.50
2018-05-28T20:30:42.427Z,17.50
2018-05-28T20:33:10.073Z,15.23
2018-05-28T20:35:37.734Z,21.67
2018-05-28T20:38:05.399Z,18.50
2018-05-28T20:40:33.016Z,15.10
2018-05-28T20:43:00.651Z,18.90
2018-05-28T20:45:28.294Z,12.33
2018-05-28T20:47:56.047Z,21.07
2018-05-28T20:50:23.658Z,17.50
2018-05-28T20:52:51.301Z,12.20
2018-05-28T20:55:18.916Z,19.10
2018-05-28T20:57:46.598Z,16.43
2018-05-28T21:00:14.213Z,16.43
2018-05-28T21:02:41.846Z,12.63
2018-05-28T21:05:09.471Z,19.40
2018-05-28T21:07:37.106Z,12.73
2018-05-28T21:10:04.726Z,12.73
2018-05-28T21:12:32.462Z,18.07
2018-05-28T21:15:00.073Z,14.30
2018-05-28T21:17:27.714Z,15.10
2018-05-28T21:19:55.371Z,13.73
2018-05-28T21:22:23.011Z,17.30
2018-05-28T21:24:50.666Z,14.30
2018-05-28T21:27:18.306Z,13.37
2018-05-28T21:29:45.920Z,15.40
2018-05-28T21:32:13.574Z,28.03
2018-05-28T21:34:41.190Z,23.77
2018-05-28T21:37:08.879Z,18.60
2018-05-28T21:39:36.540Z,16.00
2018-05-28T21:42:04.207Z,18.10
2018-05-28T21:44:31.867Z,13.23
2018-05-28T21:46:59.486Z,23.10
2018-05-28T21:49:27.190Z,18.90
2018-05-28T21:51:54.849Z,14.77
2018-05-28T21:54:22.482Z,13.97
2018-05-28T21:56:50.098Z,15.83
2018-05-28T21:59:17.846Z,20.60
2018-05-28T22:01:45.471Z,19.70
2018-05-28T22:04:13.118Z,19.77
2018-05-28T22:06:40.737Z,14.37
2018-05-28T22:09:08.375Z,22.70
2018-05-28T22:11:35.986Z,15.70
2018-05-28T22:14:03.632Z,18.70
2018-05-28T22:16:31.250Z,23.37
2018-05-28T22:18:58.887Z,14.93
2018-05-28T22:21:26.501Z,23.03
2018-05-28T22:23:54.140Z,25.10
2018-05-28T22:26:21.763Z,14.50
2018-05-28T22:28:49.405Z,19.63
2018-05-28T22:31:17.042Z,14.60
2018-05-28T22:33:44.683Z,14.47
2018-05-28T22:36:12.297Z,17.57
2018-05-28T22:38:39.926Z,13.67
2018-05-28T22:41:07.591Z,18.70
2018-05-28T22:43:35.250Z,17.67
2018-05-28T22:46:02.917Z,14.73
2018-05-28T22:48:30.538Z,17.53
2018-05-28T22:50:58.181Z,15.13
2018-05-28T22:53:25.798Z,19.50
2018-05-28T22:55:53.440Z,27.47
2018-05-28T22:58:21.055Z,15.00
2018-05-28T23:00:48.691Z,19.80
2018-05-28T23:03:16.306Z,18.17
2018-05-28T23:05:43.943Z,24.13
2018-05-28T23:08:11.567Z,17.60
2018-05-28T23:10:39.227Z,17.83
2018-05-28T23:13:06.886Z,19.70
2018-05-28T23:15:34.555Z,19.93
2018-05-28T23:18:02.170Z,15.30
2018-05-28T23:20:29.874Z,20.70
2018-05-28T23:22:57.538Z,19.37
2018-05-28T23:25:25.202Z,18.13
2018-05-28T23:27:52.811Z,16.53
2018-05-28T23:30:20.449Z,16.90
2018-05-28T23:32:48.078Z,20.97
2018-05-28T23:35:15.715Z,31.70
2018-05-28T23:37:43.330Z,26.03
2018-05-28T23:40:11.070Z,19.27
2018-05-28T23:42:38.686Z,19.57
2018-05-28T23:45:06.394Z,32.70
2018-05-28T23:47:34.566Z,21.70
2018-05-28T23:50:02.207Z,20.00
2018-05-28T23:52:29.834Z,23.80
2018-05-28T23:54:57.475Z,22.43
2018-05-28T23:57:25.118Z,19.93
2018-05-28T23:59:52.778Z,17.20
